sensor_id;sensor_type;location;lat;lon;timestamp;temperature;humidity
2409;DHT22;8463;48.094;7.970;2023-05-14T00:00:34;11.50;1.00
2409;DHT22;8463;48.094;7.970;2023-05-14T00:03:06;11.20;1.00
2409;DHT22;8463;48.094;7.970;2023-05-14T00:05:32;11.10;1.00
2409;DHT22;8463;48.094;7.970;2023-05-14T00:07:57;11.20;1.00
2409;DHT22;8463;48.094;7.970;2023-05-14T00:10:23;11.30;1.00
2409;DHT22;8463;48.094;7.970;2023-05-14T00:12:50;11.40;1.00
2409;DHT22;8463;48.094;7.970;2023-05-14T00:15:15;11.50;1.00
2409;DHT22;8463;48.094;7.970;2023-05-14T00:17:41;11.50;1.00
2409;DHT22;8463;48.094;7.970;2023-05-14T00:20:07;11.50;1.00
2409;DHT22;8463;48.094;7.970;2023-05-14T00:22:33;11.60;1.00
2409;DHT22;8463;48.094;7.970;2023-05-14T00:24:59;11.50;1.00
2409;DHT22;8463;48.094;7.970;2023-05-14T00:27:25;11.50;1.00
2409;DHT22;8463;48.094;7.970;2023-05-14T00:29:50;11.50;1.00
2409;DHT22;8463;48.094;7.970;2023-05-14T00:32:16;11.40;1.00
2409;DHT22;8463;48.094;7.970;2023-05-14T00:37:07;10.90;1.00
2409;DHT22;8463;48.094;7.970;2023-05-14T00:39:33;10.90;1.00
2409;DHT22;8463;48.094;7.970;2023-05-14T00:41:59;10.90;1.00
2409;DHT22;8463;48.094;7.970;2023-05-14T00:44:24;11.00;1.00
2409;DHT22;8463;48.094;7.970;2023-05-14T00:46:51;11.00;1.00
2409;DHT22;8463;48.094;7.970;2023-05-14T00:49:17;11.00;1.00
2409;DHT22;8463;48.094;7.970;2023-05-14T00:51:44;11.10;1.00
2409;DHT22;8463;48.094;7.970;2023-05-14T00:54:15;11.10;1.00
2409;DHT22;8463;48.094;7.970;2023-05-14T00:56:43;11.00;1.00
2409;DHT22;8463;48.094;7.970;2023-05-14T00:59:09;11.00;1.00
2409;DHT22;8463;48.094;7.970;2023-05-14T01:01:34;10.90;1.00
2409;DHT22;8463;48.094;7.970;2023-05-14T01:09:17;10.50;1.00
2409;DHT22;8463;48.094;7.970;2023-05-14T01:12:07;10.50;1.00
2409;DHT22;8463;48.094;7.970;2023-05-14T01:17:46;10.70;1.00
2409;DHT22;8463;48.094;7.970;2023-05-14T01:20:13;10.70;1.00
2409;DHT22;8463;48.094;7.970;2023-05-14T01:22:39;10.70;1.00
2409;DHT22;8463;48.094;7.970;2023-05-14T01:25:06;10.70;1.00
2409;DHT22;8463;48.094;7.970;2023-05-14T01:27:44;10.70;1.00
2409;DHT22;8463;48.094;7.970;2023-05-14T01:32:53;10.80;1.00
2409;DHT22;8463;48.094;7.970;2023-05-14T01:35:22;10.80;1.00
2409;DHT22;8463;48.094;7.970;2023-05-14T01:37:49;10.70;1.00
2409;DHT22;8463;48.094;7.970;2023-05-14T01:40:15;10.70;1.00
2409;DHT22;8463;48.094;7.970;2023-05-14T01:42:42;10.60;1.00
2409;DHT22;8463;48.094;7.970;2023-05-14T01:47:37;10.50;1.00
2409;DHT22;8463;48.094;7.970;2023-05-14T01:52:29;10.50;1.00
2409;DHT22;8463;48.094;7.970;2023-05-14T01:54:57;10.50;1.00
2409;DHT22;8463;48.094;7.970;2023-05-14T01:57:25;10.40;1.00
2409;DHT22;8463;48.094;7.970;2023-05-14T01:59:51;10.30;1.00
2409;DHT22;8463;48.094;7.970;2023-05-14T02:02:17;10.20;1.00
2409;DHT22;8463;48.094;7.970;2023-05-14T02:04:42;10.20;1.00
2409;DHT22;8463;48.094;7.970;2023-05-14T02:07:08;10.20;1.00
2409;DHT22;8463;48.094;7.970;2023-05-14T02:09:33;10.20;1.00
2409;DHT22;8463;48.094;7.970;2023-05-14T02:12:02;10.30;1.00
2409;DHT22;8463;48.094;7.970;2023-05-14T02:14:27;10.40;1.00
2409;DHT22;8463;48.094;7.970;2023-05-14T02:16:53;10.40;1.00
2409;DHT22;8463;48.094;7.970;2023-05-14T02:19:21;10.40;1.00
2409;DHT22;8463;48.094;7.970;2023-05-14T02:21:49;10.30;1.00
2409;DHT22;8463;48.094;7.970;2023-05-14T02:24:18;10.30;1.00
2409;DHT22;8463;48.094;7.970;2023-05-14T02:26:43;10.30;1.00
2409;DHT22;8463;48.094;7.970;2023-05-14T02:29:09;10.10;1.00
2409;DHT22;8463;48.094;7.970;2023-05-14T02:31:35;10.20;1.00
2409;DHT22;8463;48.094;7.970;2023-05-14T02:34:02;10.20;1.00
2409;DHT22;8463;48.094;7.970;2023-05-14T02:36:28;10.20;1.00
2409;DHT22;8463;48.094;7.970;2023-05-14T02:38:58;10.20;1.00
2409;DHT22;8463;48.094;7.970;2023-05-14T02:43:51;10.20;1.00
2409;DHT22;8463;48.094;7.970;2023-05-14T02:46:17;10.20;1.00
2409;DHT22;8463;48.094;7.970;2023-05-14T02:48:42;10.30;1.00
2409;DHT22;8463;48.094;7.970;2023-05-14T02:51:08;10.30;1.00
2409;DHT22;8463;48.094;7.970;2023-05-14T02:53:34;10.30;1.00
2409;DHT22;8463;48.094;7.970;2023-05-14T02:56:00;10.30;1.00
2409;DHT22;8463;48.094;7.970;2023-05-14T02:58:26;10.30;1.50
2409;DHT22;8463;48.094;7.970;2023-05-14T03:00:52;10.30;2.20
2409;DHT22;8463;48.094;7.970;2023-05-14T03:03:18;10.20;2.20
2409;DHT22;8463;48.094;7.970;2023-05-14T03:05:44;10.30;2.90
2409;DHT22;8463;48.094;7.970;2023-05-14T03:08:09;10.30;2.90
2409;DHT22;8463;48.094;7.970;2023-05-14T03:10:41;10.40;3.40
2409;DHT22;8463;48.094;7.970;2023-05-14T03:13:07;10.40;3.30
2409;DHT22;8463;48.094;7.970;2023-05-14T03:15:32;10.40;1.90
2409;DHT22;8463;48.094;7.970;2023-05-14T03:17:58;10.40;2.30
2409;DHT22;8463;48.094;7.970;2023-05-14T03:20:24;10.30;3.50
2409;DHT22;8463;48.094;7.970;2023-05-14T03:22:50;10.40;4.10
2409;DHT22;8463;48.094;7.970;2023-05-14T03:25:16;10.30;3.90
2409;DHT22;8463;48.094;7.970;2023-05-14T03:27:42;10.30;4.70
2409;DHT22;8463;48.094;7.970;2023-05-14T03:30:07;10.30;4.20
2409;DHT22;8463;48.094;7.970;2023-05-14T03:32:33;10.30;4.90
2409;DHT22;8463;48.094;7.970;2023-05-14T03:37:25;10.30;6.30
2409;DHT22;8463;48.094;7.970;2023-05-14T03:39:51;10.30;5.40
2409;DHT22;8463;48.094;7.970;2023-05-14T03:42:17;10.40;6.30
2409;DHT22;8463;48.094;7.970;2023-05-14T03:44:44;10.40;6.30
2409;DHT22;8463;48.094;7.970;2023-05-14T03:47:10;10.40;5.80
2409;DHT22;8463;48.094;7.970;2023-05-14T03:52:02;10.40;6.30
2409;DHT22;8463;48.094;7.970;2023-05-14T03:54:27;10.60;6.20
2409;DHT22;8463;48.094;7.970;2023-05-14T03:56:53;10.60;5.50
2409;DHT22;8463;48.094;7.970;2023-05-14T03:59:19;10.60;5.00
2409;DHT22;8463;48.094;7.970;2023-05-14T04:04:14;10.50;5.60
2409;DHT22;8463;48.094;7.970;2023-05-14T04:06:40;10.60;6.10
2409;DHT22;8463;48.094;7.970;2023-05-14T04:09:06;10.60;5.70
2409;DHT22;8463;48.094;7.970;2023-05-14T04:11:31;10.60;5.00
2409;DHT22;8463;48.094;7.970;2023-05-14T04:16:23;10.70;5.70
2409;DHT22;8463;48.094;7.970;2023-05-14T04:18:48;10.70;5.60
2409;DHT22;8463;48.094;7.970;2023-05-14T04:21:14;10.70;5.80
2409;DHT22;8463;48.094;7.970;2023-05-14T04:23:40;10.70;6.40
2409;DHT22;8463;48.094;7.970;2023-05-14T04:26:05;10.80;5.80
2409;DHT22;8463;48.094;7.970;2023-05-14T04:28:31;10.80;5.50
2409;DHT22;8463;48.094;7.970;2023-05-14T04:30:57;10.90;5.20
2409;DHT22;8463;48.094;7.970;2023-05-14T04:33:22;11.00;4.00
2409;DHT22;8463;48.094;7.970;2023-05-14T04:35:48;10.90;4.00
2409;DHT22;8463;48.094;7.970;2023-05-14T04:38:13;11.00;4.40
2409;DHT22;8463;48.094;7.970;2023-05-14T04:40:40;11.00;4.60
2409;DHT22;8463;48.094;7.970;2023-05-14T04:45:34;11.10;4.40
2409;DHT22;8463;48.094;7.970;2023-05-14T04:48:04;11.20;4.10
2409;DHT22;8463;48.094;7.970;2023-05-14T04:50:32;11.20;3.70
2409;DHT22;8463;48.094;7.970;2023-05-14T04:52:57;11.20;2.90
2409;DHT22;8463;48.094;7.970;2023-05-14T04:55:23;11.20;2.90
2409;DHT22;8463;48.094;7.970;2023-05-14T04:57:49;11.20;2.90
2409;DHT22;8463;48.094;7.970;2023-05-14T05:00:15;11.20;3.30
2409;DHT22;8463;48.094;7.970;2023-05-14T05:02:41;11.20;3.40
2409;DHT22;8463;48.094;7.970;2023-05-14T05:05:07;11.20;3.80
2409;DHT22;8463;48.094;7.970;2023-05-14T05:07:34;11.20;3.70
2409;DHT22;8463;48.094;7.970;2023-05-14T05:09:59;11.30;4.60
2409;DHT22;8463;48.094;7.970;2023-05-14T05:12:25;11.30;4.90
2409;DHT22;8463;48.094;7.970;2023-05-14T05:14:55;11.30;4.90
2409;DHT22;8463;48.094;7.970;2023-05-14T05:17:20;11.30;5.60
2409;DHT22;8463;48.094;7.970;2023-05-14T05:22:12;11.40;5.40
2409;DHT22;8463;48.094;7.970;2023-05-14T05:24:38;11.50;6.00
2409;DHT22;8463;48.094;7.970;2023-05-14T05:27:04;11.40;7.10
2409;DHT22;8463;48.094;7.970;2023-05-14T05:29:30;11.40;7.50
2409;DHT22;8463;48.094;7.970;2023-05-14T05:31:56;11.50;8.00
2409;DHT22;8463;48.094;7.970;2023-05-14T05:34:23;11.60;7.60
2409;DHT22;8463;48.094;7.970;2023-05-14T05:36:49;11.50;8.10
2409;DHT22;8463;48.094;7.970;2023-05-14T05:41:41;11.50;8.20
2409;DHT22;8463;48.094;7.970;2023-05-14T05:44:08;11.60;8.40
2409;DHT22;8463;48.094;7.970;2023-05-14T05:46:33;11.50;9.00
2409;DHT22;8463;48.094;7.970;2023-05-14T05:48:59;11.50;9.40
2409;DHT22;8463;48.094;7.970;2023-05-14T05:51:25;11.50;9.90
2409;DHT22;8463;48.094;7.970;2023-05-14T05:53:50;11.60;9.90
2409;DHT22;8463;48.094;7.970;2023-05-14T05:56:16;11.70;9.90
2409;DHT22;8463;48.094;7.970;2023-05-14T05:58:42;11.70;9.90
2409;DHT22;8463;48.094;7.970;2023-05-14T06:01:07;11.80;10.90
2409;DHT22;8463;48.094;7.970;2023-05-14T06:03:33;11.80;11.30
2409;DHT22;8463;48.094;7.970;2023-05-14T06:05:58;11.80;11.80
2409;DHT22;8463;48.094;7.970;2023-05-14T06:08:27;12.60;32.50
2409;DHT22;8463;48.094;7.970;2023-05-14T06:10:52;13.00;28.60
2409;DHT22;8463;48.094;7.970;2023-05-14T06:13:18;13.20;25.70
2409;DHT22;8463;48.094;7.970;2023-05-14T06:15:44;13.20;26.40
2409;DHT22;8463;48.094;7.970;2023-05-14T06:18:12;13.50;15.10
2409;DHT22;8463;48.094;7.970;2023-05-14T06:20:37;13.50;10.10
2409;DHT22;8463;48.094;7.970;2023-05-14T06:23:03;13.50;4.70
2409;DHT22;8463;48.094;7.970;2023-05-14T06:25:28;13.40;2.60
2409;DHT22;8463;48.094;7.970;2023-05-14T06:27:54;13.20;2.20
2409;DHT22;8463;48.094;7.970;2023-05-14T06:30:20;13.10;3.90
2409;DHT22;8463;48.094;7.970;2023-05-14T06:32:45;13.10;6.20
2409;DHT22;8463;48.094;7.970;2023-05-14T06:35:13;13.00;8.20
2409;DHT22;8463;48.094;7.970;2023-05-14T06:37:39;13.00;8.00
2409;DHT22;8463;48.094;7.970;2023-05-14T06:40:05;13.00;9.20
2409;DHT22;8463;48.094;7.970;2023-05-14T06:42:31;13.00;9.60
2409;DHT22;8463;48.094;7.970;2023-05-14T06:44:56;13.00;9.10
2409;DHT22;8463;48.094;7.970;2023-05-14T06:49:48;13.10;9.10
2409;DHT22;8463;48.094;7.970;2023-05-14T06:57:06;13.00;9.60
2409;DHT22;8463;48.094;7.970;2023-05-14T06:59:31;13.00;10.30
2409;DHT22;8463;48.094;7.970;2023-05-14T07:01:57;13.10;10.90
2409;DHT22;8463;48.094;7.970;2023-05-14T07:04:23;13.10;10.90
2409;DHT22;8463;48.094;7.970;2023-05-14T07:06:49;13.40;10.00
2409;DHT22;8463;48.094;7.970;2023-05-14T07:09:15;13.50;9.20
2409;DHT22;8463;48.094;7.970;2023-05-14T07:11:40;13.60;8.30
2409;DHT22;8463;48.094;7.970;2023-05-14T07:14:06;13.70;7.50
2409;DHT22;8463;48.094;7.970;2023-05-14T07:16:32;13.80;7.70
2409;DHT22;8463;48.094;7.970;2023-05-14T07:18:57;13.90;7.00
2409;DHT22;8463;48.094;7.970;2023-05-14T07:21:23;13.80;1.20
2409;DHT22;8463;48.094;7.970;2023-05-14T07:23:49;13.50;4.50
2409;DHT22;8463;48.094;7.970;2023-05-14T07:26:14;13.40;10.00
2409;DHT22;8463;48.094;7.970;2023-05-14T07:28:40;13.10;12.30
2409;DHT22;8463;48.094;7.970;2023-05-14T07:31:06;13.00;13.90
2409;DHT22;8463;48.094;7.970;2023-05-14T07:33:34;12.90;15.00
2409;DHT22;8463;48.094;7.970;2023-05-14T07:36:00;13.00;19.00
2409;DHT22;8463;48.094;7.970;2023-05-14T07:38:26;12.90;16.10
2409;DHT22;8463;48.094;7.970;2023-05-14T07:45:44;13.00;14.70
2409;DHT22;8463;48.094;7.970;2023-05-14T07:48:10;13.10;13.50
2409;DHT22;8463;48.094;7.970;2023-05-14T07:50:36;13.20;14.10
2409;DHT22;8463;48.094;7.970;2023-05-14T07:53:02;13.30;14.70
2409;DHT22;8463;48.094;7.970;2023-05-14T07:55:27;13.20;8.70
2409;DHT22;8463;48.094;7.970;2023-05-14T07:57:53;13.20;9.10
2409;DHT22;8463;48.094;7.970;2023-05-14T08:00:19;13.30;7.80
2409;DHT22;8463;48.094;7.970;2023-05-14T08:02:44;13.40;7.90
2409;DHT22;8463;48.094;7.970;2023-05-14T08:05:10;13.50;7.30
2409;DHT22;8463;48.094;7.970;2023-05-14T08:07:36;13.50;4.60
2409;DHT22;8463;48.094;7.970;2023-05-14T08:10:02;13.50;6.50
2409;DHT22;8463;48.094;7.970;2023-05-14T08:12:28;13.40;8.10
2409;DHT22;8463;48.094;7.970;2023-05-14T08:14:54;13.50;9.50
2409;DHT22;8463;48.094;7.970;2023-05-14T08:17:20;13.60;6.00
2409;DHT22;8463;48.094;7.970;2023-05-14T08:19:48;13.70;6.50
2409;DHT22;8463;48.094;7.970;2023-05-14T08:22:14;13.80;5.10
2409;DHT22;8463;48.094;7.970;2023-05-14T08:24:39;13.80;5.10
2409;DHT22;8463;48.094;7.970;2023-05-14T08:27:08;13.90;4.80
2409;DHT22;8463;48.094;7.970;2023-05-14T08:29:34;14.00;5.00
2409;DHT22;8463;48.094;7.970;2023-05-14T08:32:02;14.10;5.20
2409;DHT22;8463;48.094;7.970;2023-05-14T08:34:28;14.10;1.10
2409;DHT22;8463;48.094;7.970;2023-05-14T08:36:54;14.10;1.50
2409;DHT22;8463;48.094;7.970;2023-05-14T08:39:19;14.30;1.60
2409;DHT22;8463;48.094;7.970;2023-05-14T08:41:45;14.30;1.00
2409;DHT22;8463;48.094;7.970;2023-05-14T08:45:08;14.30;1.10
2409;DHT22;8463;48.094;7.970;2023-05-14T08:47:15;14.50;1.00
2409;DHT22;8463;48.094;7.970;2023-05-14T08:49:43;14.80;1.00
2409;DHT22;8463;48.094;7.970;2023-05-14T08:52:11;14.90;1.00
2409;DHT22;8463;48.094;7.970;2023-05-14T08:54:37;14.90;1.00
2409;DHT22;8463;48.094;7.970;2023-05-14T08:57:03;14.80;1.00
2409;DHT22;8463;48.094;7.970;2023-05-14T08:59:29;14.90;1.00
2409;DHT22;8463;48.094;7.970;2023-05-14T09:01:55;15.00;1.00
2409;DHT22;8463;48.094;7.970;2023-05-14T09:04:23;14.90;1.00
2409;DHT22;8463;48.094;7.970;2023-05-14T09:06:50;15.30;1.00
2409;DHT22;8463;48.094;7.970;2023-05-14T09:09:17;15.60;1.00
2409;DHT22;8463;48.094;7.970;2023-05-14T09:11:46;15.60;1.00
2409;DHT22;8463;48.094;7.970;2023-05-14T09:14:14;15.70;1.00
2409;DHT22;8463;48.094;7.970;2023-05-14T09:16:46;15.90;1.00
2409;DHT22;8463;48.094;7.970;2023-05-14T09:19:15;15.90;1.00
2409;DHT22;8463;48.094;7.970;2023-05-14T09:21:44;15.90;1.00
2409;DHT22;8463;48.094;7.970;2023-05-14T09:24:21;15.80;1.00
2409;DHT22;8463;48.094;7.970;2023-05-14T09:26:52;15.80;1.00
2409;DHT22;8463;48.094;7.970;2023-05-14T09:29:18;15.80;1.00
2409;DHT22;8463;48.094;7.970;2023-05-14T09:31:44;15.90;1.00
2409;DHT22;8463;48.094;7.970;2023-05-14T09:34:09;15.90;1.00
2409;DHT22;8463;48.094;7.970;2023-05-14T09:36:35;15.80;1.00
2409;DHT22;8463;48.094;7.970;2023-05-14T09:39:04;15.90;1.00
2409;DHT22;8463;48.094;7.970;2023-05-14T09:41:30;16.00;1.00
2409;DHT22;8463;48.094;7.970;2023-05-14T09:43:56;16.10;1.00
2409;DHT22;8463;48.094;7.970;2023-05-14T09:46:28;16.10;1.00
2409;DHT22;8463;48.094;7.970;2023-05-14T09:48:56;16.10;1.00
2409;DHT22;8463;48.094;7.970;2023-05-14T09:51:25;16.20;1.00
2409;DHT22;8463;48.094;7.970;2023-05-14T09:53:52;16.20;1.00
2409;DHT22;8463;48.094;7.970;2023-05-14T09:56:18;16.20;1.00
2409;DHT22;8463;48.094;7.970;2023-05-14T09:58:45;16.30;1.00
2409;DHT22;8463;48.094;7.970;2023-05-14T10:01:11;16.60;1.00
2409;DHT22;8463;48.094;7.970;2023-05-14T10:03:44;16.50;1.00
2409;DHT22;8463;48.094;7.970;2023-05-14T10:06:18;16.40;1.00
2409;DHT22;8463;48.094;7.970;2023-05-14T10:08:44;16.40;1.00
2409;DHT22;8463;48.094;7.970;2023-05-14T10:11:18;16.30;1.00
2409;DHT22;8463;48.094;7.970;2023-05-14T10:16:55;17.00;1.00
2409;DHT22;8463;48.094;7.970;2023-05-14T10:19:24;17.30;1.00
2409;DHT22;8463;48.094;7.970;2023-05-14T10:22:04;17.50;1.00
2409;DHT22;8463;48.094;7.970;2023-05-14T10:24:31;17.80;1.00
2409;DHT22;8463;48.094;7.970;2023-05-14T10:26:57;17.80;1.00
2409;DHT22;8463;48.094;7.970;2023-05-14T10:29:36;17.60;1.00
2409;DHT22;8463;48.094;7.970;2023-05-14T10:32:08;17.50;1.00
2409;DHT22;8463;48.094;7.970;2023-05-14T10:34:36;17.60;1.00
2409;DHT22;8463;48.094;7.970;2023-05-14T10:37:04;17.70;1.00
2409;DHT22;8463;48.094;7.970;2023-05-14T10:39:51;18.00;1.00
2409;DHT22;8463;48.094;7.970;2023-05-14T10:42:36;18.30;1.00
2409;DHT22;8463;48.094;7.970;2023-05-14T10:45:06;18.50;1.00
2409;DHT22;8463;48.094;7.970;2023-05-14T10:47:38;18.40;1.00
2409;DHT22;8463;48.094;7.970;2023-05-14T10:50:11;18.40;1.00
2409;DHT22;8463;48.094;7.970;2023-05-14T10:52:42;18.40;1.00
2409;DHT22;8463;48.094;7.970;2023-05-14T10:55:08;18.40;1.00
2409;DHT22;8463;48.094;7.970;2023-05-14T10:57:40;18.40;1.00
2409;DHT22;8463;48.094;7.970;2023-05-14T11:00:07;18.40;1.00
2409;DHT22;8463;48.094;7.970;2023-05-14T11:02:40;18.60;1.00
2409;DHT22;8463;48.094;7.970;2023-05-14T11:07:35;19.00;1.00
2409;DHT22;8463;48.094;7.970;2023-05-14T11:10:15;19.10;1.00
2409;DHT22;8463;48.094;7.970;2023-05-14T11:12:43;19.00;1.00
2409;DHT22;8463;48.094;7.970;2023-05-14T11:15:11;19.00;1.00
2409;DHT22;8463;48.094;7.970;2023-05-14T11:17:43;18.90;1.00
2409;DHT22;8463;48.094;7.970;2023-05-14T11:20:13;18.30;1.00
2409;DHT22;8463;48.094;7.970;2023-05-14T11:22:40;18.20;1.00
2409;DHT22;8463;48.094;7.970;2023-05-14T11:25:07;17.80;1.00
2409;DHT22;8463;48.094;7.970;2023-05-14T11:27:34;17.30;1.00
2409;DHT22;8463;48.094;7.970;2023-05-14T11:30:03;16.90;1.00
2409;DHT22;8463;48.094;7.970;2023-05-14T11:32:34;16.60;1.00
2409;DHT22;8463;48.094;7.970;2023-05-14T11:35:00;16.50;1.00
2409;DHT22;8463;48.094;7.970;2023-05-14T11:37:25;16.40;1.00
2409;DHT22;8463;48.094;7.970;2023-05-14T11:39:57;16.40;1.00
2409;DHT22;8463;48.094;7.970;2023-05-14T11:42:27;16.40;1.00
2409;DHT22;8463;48.094;7.970;2023-05-14T11:44:52;16.30;1.00
2409;DHT22;8463;48.094;7.970;2023-05-14T11:47:19;16.40;1.00
2409;DHT22;8463;48.094;7.970;2023-05-14T11:49:46;16.50;1.00
2409;DHT22;8463;48.094;7.970;2023-05-14T11:52:12;17.10;4.50
2409;DHT22;8463;48.094;7.970;2023-05-14T11:54:40;17.20;5.20
2409;DHT22;8463;48.094;7.970;2023-05-14T11:57:12;18.00;1.00
2409;DHT22;8463;48.094;7.970;2023-05-14T11:59:38;17.80;1.00
2409;DHT22;8463;48.094;7.970;2023-05-14T12:02:07;17.60;1.00
2409;DHT22;8463;48.094;7.970;2023-05-14T12:04:42;17.60;1.00
2409;DHT22;8463;48.094;7.970;2023-05-14T12:07:13;17.20;1.00
2409;DHT22;8463;48.094;7.970;2023-05-14T12:09:43;17.30;1.00
2409;DHT22;8463;48.094;7.970;2023-05-14T12:12:15;17.20;1.00
2409;DHT22;8463;48.094;7.970;2023-05-14T12:14:41;17.50;1.00
2409;DHT22;8463;48.094;7.970;2023-05-14T12:17:12;17.80;1.00
2409;DHT22;8463;48.094;7.970;2023-05-14T12:19:43;18.20;1.00
2409;DHT22;8463;48.094;7.970;2023-05-14T12:22:13;18.30;1.00
2409;DHT22;8463;48.094;7.970;2023-05-14T12:24:39;18.30;1.00
2409;DHT22;8463;48.094;7.970;2023-05-14T12:27:09;17.70;1.00
2409;DHT22;8463;48.094;7.970;2023-05-14T12:29:38;17.30;1.00
2409;DHT22;8463;48.094;7.970;2023-05-14T12:32:07;17.00;1.00
2409;DHT22;8463;48.094;7.970;2023-05-14T12:34:34;16.80;1.00
2409;DHT22;8463;48.094;7.970;2023-05-14T12:37:00;16.80;1.00
2409;DHT22;8463;48.094;7.970;2023-05-14T12:39:26;16.70;1.00
2409;DHT22;8463;48.094;7.970;2023-05-14T12:41:52;16.60;1.00
2409;DHT22;8463;48.094;7.970;2023-05-14T12:44:17;16.60;1.00
2409;DHT22;8463;48.094;7.970;2023-05-14T12:46:43;16.40;1.00
2409;DHT22;8463;48.094;7.970;2023-05-14T12:49:12;15.80;1.00
2409;DHT22;8463;48.094;7.970;2023-05-14T12:54:04;15.90;1.00
2409;DHT22;8463;48.094;7.970;2023-05-14T12:56:33;16.00;1.00
2409;DHT22;8463;48.094;7.970;2023-05-14T12:59:05;16.20;1.00
2409;DHT22;8463;48.094;7.970;2023-05-14T13:01:30;16.50;1.00
2409;DHT22;8463;48.094;7.970;2023-05-14T13:03:56;16.70;1.00
2409;DHT22;8463;48.094;7.970;2023-05-14T13:06:23;16.90;1.00
2409;DHT22;8463;48.094;7.970;2023-05-14T13:08:49;17.10;1.00
2409;DHT22;8463;48.094;7.970;2023-05-14T13:11:15;17.50;1.00
2409;DHT22;8463;48.094;7.970;2023-05-14T13:13:43;18.00;1.00
2409;DHT22;8463;48.094;7.970;2023-05-14T13:16:08;18.60;1.00
2409;DHT22;8463;48.094;7.970;2023-05-14T13:18:34;18.80;1.00
2409;DHT22;8463;48.094;7.970;2023-05-14T13:21:03;18.80;1.00
2409;DHT22;8463;48.094;7.970;2023-05-14T13:25:59;18.60;1.00
2409;DHT22;8463;48.094;7.970;2023-05-14T13:28:27;18.10;1.00
2409;DHT22;8463;48.094;7.970;2023-05-14T13:31:08;18.10;1.00
2409;DHT22;8463;48.094;7.970;2023-05-14T13:33:35;17.90;1.00
2409;DHT22;8463;48.094;7.970;2023-05-14T13:36:03;17.70;1.00
2409;DHT22;8463;48.094;7.970;2023-05-14T13:38:29;17.50;1.00
2409;DHT22;8463;48.094;7.970;2023-05-14T13:40:59;17.50;1.00
2409;DHT22;8463;48.094;7.970;2023-05-14T13:43:29;17.30;1.00
2409;DHT22;8463;48.094;7.970;2023-05-14T13:46:02;17.20;1.00
2409;DHT22;8463;48.094;7.970;2023-05-14T13:48:28;17.20;1.00
2409;DHT22;8463;48.094;7.970;2023-05-14T13:50:55;17.10;1.00
2409;DHT22;8463;48.094;7.970;2023-05-14T13:53:22;17.20;1.00
2409;DHT22;8463;48.094;7.970;2023-05-14T13:55:48;17.30;1.00
2409;DHT22;8463;48.094;7.970;2023-05-14T13:58:15;17.50;1.00
2409;DHT22;8463;48.094;7.970;2023-05-14T14:00:40;17.50;1.00
2409;DHT22;8463;48.094;7.970;2023-05-14T14:03:10;17.60;1.00
2409;DHT22;8463;48.094;7.970;2023-05-14T14:05:35;17.80;1.00
2409;DHT22;8463;48.094;7.970;2023-05-14T14:08:01;17.90;1.00
2409;DHT22;8463;48.094;7.970;2023-05-14T14:10:27;17.80;1.00
2409;DHT22;8463;48.094;7.970;2023-05-14T14:12:54;17.80;1.00
2409;DHT22;8463;48.094;7.970;2023-05-14T14:15:20;17.60;1.00
2409;DHT22;8463;48.094;7.970;2023-05-14T14:17:50;17.60;1.00
2409;DHT22;8463;48.094;7.970;2023-05-14T14:20:19;17.60;1.00
2409;DHT22;8463;48.094;7.970;2023-05-14T14:22:50;17.50;1.00
2409;DHT22;8463;48.094;7.970;2023-05-14T14:25:15;17.40;1.00
2409;DHT22;8463;48.094;7.970;2023-05-14T14:27:42;17.40;1.00
2409;DHT22;8463;48.094;7.970;2023-05-14T14:30:10;17.40;1.00
2409;DHT22;8463;48.094;7.970;2023-05-14T14:32:49;17.50;1.00
2409;DHT22;8463;48.094;7.970;2023-05-14T14:35:16;17.60;1.00
2409;DHT22;8463;48.094;7.970;2023-05-14T14:37:48;17.60;1.00
2409;DHT22;8463;48.094;7.970;2023-05-14T14:40:17;17.70;1.00
2409;DHT22;8463;48.094;7.970;2023-05-14T14:42:43;17.80;1.00
2409;DHT22;8463;48.094;7.970;2023-05-14T14:45:09;18.00;1.00
2409;DHT22;8463;48.094;7.970;2023-05-14T14:47:35;18.40;1.00
2409;DHT22;8463;48.094;7.970;2023-05-14T14:50:01;18.50;1.00
2409;DHT22;8463;48.094;7.970;2023-05-14T14:52:28;18.90;1.00
2409;DHT22;8463;48.094;7.970;2023-05-14T14:54:56;19.20;1.00
2409;DHT22;8463;48.094;7.970;2023-05-14T14:57:23;19.20;1.00
2409;DHT22;8463;48.094;7.970;2023-05-14T14:59:48;18.90;1.00
2409;DHT22;8463;48.094;7.970;2023-05-14T15:02:14;18.60;1.00
2409;DHT22;8463;48.094;7.970;2023-05-14T15:04:40;18.50;1.00
2409;DHT22;8463;48.094;7.970;2023-05-14T15:07:06;18.50;1.00
2409;DHT22;8463;48.094;7.970;2023-05-14T15:09:31;18.60;1.00
2409;DHT22;8463;48.094;7.970;2023-05-14T15:11:57;18.70;1.00
2409;DHT22;8463;48.094;7.970;2023-05-14T15:16:49;18.40;1.00
2409;DHT22;8463;48.094;7.970;2023-05-14T15:19:15;18.30;1.00
2409;DHT22;8463;48.094;7.970;2023-05-14T15:21:41;18.10;1.00
2409;DHT22;8463;48.094;7.970;2023-05-14T15:24:10;18.00;1.00
2409;DHT22;8463;48.094;7.970;2023-05-14T15:26:37;18.10;1.00
2409;DHT22;8463;48.094;7.970;2023-05-14T15:29:09;18.20;1.00
2409;DHT22;8463;48.094;7.970;2023-05-14T15:31:35;18.20;1.00
2409;DHT22;8463;48.094;7.970;2023-05-14T15:34:00;18.20;1.00
2409;DHT22;8463;48.094;7.970;2023-05-14T15:36:26;18.20;1.00
2409;DHT22;8463;48.094;7.970;2023-05-14T15:38:52;18.20;1.00
2409;DHT22;8463;48.094;7.970;2023-05-14T15:41:18;18.20;1.00
2409;DHT22;8463;48.094;7.970;2023-05-14T15:43:44;18.50;1.00
2409;DHT22;8463;48.094;7.970;2023-05-14T15:46:10;18.80;1.00
2409;DHT22;8463;48.094;7.970;2023-05-14T15:48:36;19.10;1.00
2409;DHT22;8463;48.094;7.970;2023-05-14T15:51:02;19.30;1.00
2409;DHT22;8463;48.094;7.970;2023-05-14T15:53:30;19.20;1.00
2409;DHT22;8463;48.094;7.970;2023-05-14T15:55:56;18.90;1.00
2409;DHT22;8463;48.094;7.970;2023-05-14T15:58:22;19.00;1.00
2409;DHT22;8463;48.094;7.970;2023-05-14T16:00:47;19.00;1.00
2409;DHT22;8463;48.094;7.970;2023-05-14T16:03:16;18.90;1.00
2409;DHT22;8463;48.094;7.970;2023-05-14T16:05:41;18.70;1.00
2409;DHT22;8463;48.094;7.970;2023-05-14T16:08:07;18.60;1.00
2409;DHT22;8463;48.094;7.970;2023-05-14T16:10:35;18.50;1.00
2409;DHT22;8463;48.094;7.970;2023-05-14T16:13:00;18.40;1.00
2409;DHT22;8463;48.094;7.970;2023-05-14T16:15:26;18.20;1.00
2409;DHT22;8463;48.094;7.970;2023-05-14T16:17:53;18.30;1.00
2409;DHT22;8463;48.094;7.970;2023-05-14T16:20:18;18.40;1.00
2409;DHT22;8463;48.094;7.970;2023-05-14T16:22:44;18.30;1.00
2409;DHT22;8463;48.094;7.970;2023-05-14T16:25:18;18.40;1.00
2409;DHT22;8463;48.094;7.970;2023-05-14T16:27:43;18.40;1.00
2409;DHT22;8463;48.094;7.970;2023-05-14T16:30:09;18.40;1.00
2409;DHT22;8463;48.094;7.970;2023-05-14T16:32:35;18.30;1.00
2409;DHT22;8463;48.094;7.970;2023-05-14T16:35:01;18.30;1.00
2409;DHT22;8463;48.094;7.970;2023-05-14T16:37:27;18.20;1.00
2409;DHT22;8463;48.094;7.970;2023-05-14T16:39:52;18.10;1.00
2409;DHT22;8463;48.094;7.970;2023-05-14T16:42:18;18.00;1.00
2409;DHT22;8463;48.094;7.970;2023-05-14T16:44:44;18.00;1.00
2409;DHT22;8463;48.094;7.970;2023-05-14T16:47:09;18.00;1.00
2409;DHT22;8463;48.094;7.970;2023-05-14T16:49:35;17.90;1.00
2409;DHT22;8463;48.094;7.970;2023-05-14T16:52:01;18.00;1.00
2409;DHT22;8463;48.094;7.970;2023-05-14T16:54:26;18.00;1.00
2409;DHT22;8463;48.094;7.970;2023-05-14T16:56:52;17.90;1.00
2409;DHT22;8463;48.094;7.970;2023-05-14T16:59:18;18.00;1.00
2409;DHT22;8463;48.094;7.970;2023-05-14T17:01:43;18.00;1.00
2409;DHT22;8463;48.094;7.970;2023-05-14T17:04:09;18.00;1.00
2409;DHT22;8463;48.094;7.970;2023-05-14T17:06:35;17.90;1.00
2409;DHT22;8463;48.094;7.970;2023-05-14T17:09:01;17.90;1.00
2409;DHT22;8463;48.094;7.970;2023-05-14T17:11:27;17.90;1.00
2409;DHT22;8463;48.094;7.970;2023-05-14T17:13:53;17.80;1.00
2409;DHT22;8463;48.094;7.970;2023-05-14T17:16:18;17.80;1.00
2409;DHT22;8463;48.094;7.970;2023-05-14T17:18:46;17.70;1.00